sensor_id;sensor_type;location;lat;lon;timestamp;temperature;humidity
34558;DHT22;24708;48.888;8.736;2022-12-07T06:32:04;2.60;99.90
34558;DHT22;24708;48.888;8.736;2022-12-07T06:34:32;2.60;99.90
34558;DHT22;24708;48.888;8.736;2022-12-07T06:36:59;2.40;99.90
34558;DHT22;24708;48.888;8.736;2022-12-07T06:39:27;2.60;99.90
34558;DHT22;24708;48.888;8.736;2022-12-07T06:41:56;2.60;99.90
34558;DHT22;24708;48.888;8.736;2022-12-07T06:44:23;2.80;99.90
34558;DHT22;24708;48.888;8.736;2022-12-07T06:46:51;2.70;99.90
34558;DHT22;24708;48.888;8.736;2022-12-07T06:49:39;2.90;99.90
34558;DHT22;24708;48.888;8.736;2022-12-07T06:52:06;2.70;99.90
34558;DHT22;24708;48.888;8.736;2022-12-07T06:54:33;2.70;99.90
34558;DHT22;24708;48.888;8.736;2022-12-07T06:57:01;2.80;99.90
34558;DHT22;24708;48.888;8.736;2022-12-07T06:59:28;2.70;99.90
34558;DHT22;24708;48.888;8.736;2022-12-07T07:01:55;2.90;99.90
34558;DHT22;24708;48.888;8.736;2022-12-07T07:04:26;2.80;99.90
34558;DHT22;24708;48.888;8.736;2022-12-07T07:06:56;2.80;99.90
34558;DHT22;24708;48.888;8.736;2022-12-07T07:11:54;2.80;99.90
34558;DHT22;24708;48.888;8.736;2022-12-07T07:14:22;2.80;99.90
34558;DHT22;24708;48.888;8.736;2022-12-07T07:16:51;3.00;99.90
34558;DHT22;24708;48.888;8.736;2022-12-07T07:19:19;2.80;99.90
34558;DHT22;24708;48.888;8.736;2022-12-07T07:21:48;2.70;99.90
34558;DHT22;24708;48.888;8.736;2022-12-07T07:24:19;2.70;99.90
34558;DHT22;24708;48.888;8.736;2022-12-07T07:26:51;3.70;99.90
34558;DHT22;24708;48.888;8.736;2022-12-07T07:29:19;2.80;99.90
34558;DHT22;24708;48.888;8.736;2022-12-07T07:31:48;2.70;99.90
34558;DHT22;24708;48.888;8.736;2022-12-07T07:34:18;2.80;99.90
34558;DHT22;24708;48.888;8.736;2022-12-07T07:36:46;2.80;99.90
34558;DHT22;24708;48.888;8.736;2022-12-07T07:39:16;2.80;99.90
34558;DHT22;24708;48.888;8.736;2022-12-07T07:41:56;2.90;99.90
34558;DHT22;24708;48.888;8.736;2022-12-07T07:44:24;2.90;99.90
34558;DHT22;24708;48.888;8.736;2022-12-07T07:46:59;2.80;99.90
34558;DHT22;24708;48.888;8.736;2022-12-07T07:49:29;3.00;99.90
34558;DHT22;24708;48.888;8.736;2022-12-07T07:51:59;2.90;99.90
34558;DHT22;24708;48.888;8.736;2022-12-07T07:54:29;3.00;99.90
34558;DHT22;24708;48.888;8.736;2022-12-07T07:56:57;3.40;99.90
34558;DHT22;24708;48.888;8.736;2022-12-07T07:59:49;3.20;99.90
34558;DHT22;24708;48.888;8.736;2022-12-07T08:02:23;3.20;99.90
34558;DHT22;24708;48.888;8.736;2022-12-07T08:07:18;3.20;99.90
34558;DHT22;24708;48.888;8.736;2022-12-07T08:09:46;3.10;99.90
34558;DHT22;24708;48.888;8.736;2022-12-07T08:14:43;3.30;99.90
34558;DHT22;24708;48.888;8.736;2022-12-07T08:17:10;3.90;99.90
34558;DHT22;24708;48.888;8.736;2022-12-07T08:19:37;3.40;99.90
34558;DHT22;24708;48.888;8.736;2022-12-07T08:22:18;3.30;99.90
34558;DHT22;24708;48.888;8.736;2022-12-07T08:24:50;3.30;99.90
34558;DHT22;24708;48.888;8.736;2022-12-07T08:27:18;3.60;99.90
34558;DHT22;24708;48.888;8.736;2022-12-07T08:29:45;3.70;99.90
34558;DHT22;24708;48.888;8.736;2022-12-07T08:32:13;3.70;99.90
34558;DHT22;24708;48.888;8.736;2022-12-07T08:34:41;3.80;99.90
34558;DHT22;24708;48.888;8.736;2022-12-07T08:37:08;4.70;99.90
34558;DHT22;24708;48.888;8.736;2022-12-07T08:39:37;4.00;99.90
34558;DHT22;24708;48.888;8.736;2022-12-07T08:42:06;4.10;99.90
34558;DHT22;24708;48.888;8.736;2022-12-07T08:44:34;4.20;99.90
34558;DHT22;24708;48.888;8.736;2022-12-07T08:47:05;4.20;99.90
34558;DHT22;24708;48.888;8.736;2022-12-07T08:49:40;4.20;99.90
34558;DHT22;24708;48.888;8.736;2022-12-07T08:52:09;4.20;99.90
34558;DHT22;24708;48.888;8.736;2022-12-07T08:54:44;4.20;99.90
34558;DHT22;24708;48.888;8.736;2022-12-07T08:57:12;4.20;99.90
34558;DHT22;24708;48.888;8.736;2022-12-07T09:00:01;5.20;99.90
34558;DHT22;24708;48.888;8.736;2022-12-07T09:02:31;2.10;99.90
34558;DHT22;24708;48.888;8.736;2022-12-07T09:05:03;4.50;99.90
34558;DHT22;24708;48.888;8.736;2022-12-07T09:07:39;4.20;99.90
34558;DHT22;24708;48.888;8.736;2022-12-07T09:10:10;4.30;99.90
34558;DHT22;24708;48.888;8.736;2022-12-07T09:12:38;3.70;99.90
34558;DHT22;24708;48.888;8.736;2022-12-07T09:15:08;4.40;99.90
34558;DHT22;24708;48.888;8.736;2022-12-07T09:17:54;2.70;99.90
34558;DHT22;24708;48.888;8.736;2022-12-07T09:20:23;4.00;99.90
34558;DHT22;24708;48.888;8.736;2022-12-07T09:22:55;3.80;99.90
34558;DHT22;24708;48.888;8.736;2022-12-07T09:25:22;3.80;99.90
34558;DHT22;24708;48.888;8.736;2022-12-07T09:27:56;3.40;99.90
34558;DHT22;24708;48.888;8.736;2022-12-07T09:30:25;3.90;99.90
34558;DHT22;24708;48.888;8.736;2022-12-07T09:32:54;5.10;99.90
34558;DHT22;24708;48.888;8.736;2022-12-07T09:35:23;4.10;99.90
34558;DHT22;24708;48.888;8.736;2022-12-07T09:37:50;3.80;99.90
34558;DHT22;24708;48.888;8.736;2022-12-07T09:40:20;3.70;99.90
34558;DHT22;24708;48.888;8.736;2022-12-07T09:42:52;3.70;99.90
34558;DHT22;24708;48.888;8.736;2022-12-07T09:45:24;4.30;99.90
34558;DHT22;24708;48.888;8.736;2022-12-07T09:47:51;3.80;99.90
34558;DHT22;24708;48.888;8.736;2022-12-07T09:50:25;3.70;99.90
34558;DHT22;24708;48.888;8.736;2022-12-07T09:53:02;3.60;99.90
34558;DHT22;24708;48.888;8.736;2022-12-07T09:55:31;3.60;99.90
34558;DHT22;24708;48.888;8.736;2022-12-07T09:57:58;3.60;99.90
34558;DHT22;24708;48.888;8.736;2022-12-07T10:00:26;3.50;99.90
34558;DHT22;24708;48.888;8.736;2022-12-07T10:03:00;3.50;99.90
34558;DHT22;24708;48.888;8.736;2022-12-07T10:05:40;4.40;99.90
34558;DHT22;24708;48.888;8.736;2022-12-07T10:08:11;4.50;99.90
34558;DHT22;24708;48.888;8.736;2022-12-07T10:10:42;3.80;99.90
34558;DHT22;24708;48.888;8.736;2022-12-07T10:13:20;3.70;99.90
34558;DHT22;24708;48.888;8.736;2022-12-07T10:15:57;3.70;99.90
34558;DHT22;24708;48.888;8.736;2022-12-07T10:18:36;3.40;99.90
34558;DHT22;24708;48.888;8.736;2022-12-07T10:26:52;3.30;99.90
34558;DHT22;24708;48.888;8.736;2022-12-07T10:29:40;3.70;99.90
34558;DHT22;24708;48.888;8.736;2022-12-07T10:35:22;3.60;99.90
34558;DHT22;24708;48.888;8.736;2022-12-07T10:37:53;4.00;99.90
34558;DHT22;24708;48.888;8.736;2022-12-07T10:46:57;4.00;99.90
34558;DHT22;24708;48.888;8.736;2022-12-07T10:49:35;4.70;99.90
34558;DHT22;24708;48.888;8.736;2022-12-07T11:00:46;3.80;99.90
34558;DHT22;24708;48.888;8.736;2022-12-07T11:03:30;3.70;99.90
34558;DHT22;24708;48.888;8.736;2022-12-07T11:09:16;4.00;99.90
34558;DHT22;24708;48.888;8.736;2022-12-07T11:18:11;2.20;99.90
34558;DHT22;24708;48.888;8.736;2022-12-07T11:20:50;4.40;99.90
34558;DHT22;24708;48.888;8.736;2022-12-07T11:24:10;3.90;99.90
34558;DHT22;24708;48.888;8.736;2022-12-07T11:26:38;4.10;99.90
34558;DHT22;24708;48.888;8.736;2022-12-07T11:32:43;4.20;99.90
34558;DHT22;24708;48.888;8.736;2022-12-07T11:35:24;4.10;99.90
34558;DHT22;24708;48.888;8.736;2022-12-07T11:38:01;3.60;99.90
34558;DHT22;24708;48.888;8.736;2022-12-07T11:40:36;4.00;99.90
34558;DHT22;24708;48.888;8.736;2022-12-07T11:46:13;4.00;99.90
34558;DHT22;24708;48.888;8.736;2022-12-07T11:49:04;4.10;99.90
34558;DHT22;24708;48.888;8.736;2022-12-07T11:51:36;4.10;99.90
34558;DHT22;24708;48.888;8.736;2022-12-07T11:54:14;4.00;99.90
34558;DHT22;24708;48.888;8.736;2022-12-07T11:56:45;4.40;99.90
34558;DHT22;24708;48.888;8.736;2022-12-07T11:59:24;4.10;99.90
34558;DHT22;24708;48.888;8.736;2022-12-07T12:02:00;4.10;99.90
34558;DHT22;24708;48.888;8.736;2022-12-07T12:04:49;5.40;99.90
34558;DHT22;24708;48.888;8.736;2022-12-07T12:07:22;4.30;99.90
34558;DHT22;24708;48.888;8.736;2022-12-07T12:10:24;4.50;99.90
34558;DHT22;24708;48.888;8.736;2022-12-07T12:13:18;4.40;99.90
34558;DHT22;24708;48.888;8.736;2022-12-07T12:22:14;4.30;99.90
34558;DHT22;24708;48.888;8.736;2022-12-07T12:24:45;4.40;99.90
34558;DHT22;24708;48.888;8.736;2022-12-07T12:27:23;4.60;99.90
34558;DHT22;24708;48.888;8.736;2022-12-07T12:29:55;4.50;99.90
34558;DHT22;24708;48.888;8.736;2022-12-07T12:32:38;4.60;99.90
34558;DHT22;24708;48.888;8.736;2022-12-07T12:35:29;2.80;99.90
34558;DHT22;24708;48.888;8.736;2022-12-07T12:38:26;4.60;99.90
34558;DHT22;24708;48.888;8.736;2022-12-07T12:40:55;4.40;99.90
34558;DHT22;24708;48.888;8.736;2022-12-07T12:43:51;4.50;99.90
34558;DHT22;24708;48.888;8.736;2022-12-07T12:46:48;4.40;99.90
34558;DHT22;24708;48.888;8.736;2022-12-07T12:58:41;4.30;99.90
34558;DHT22;24708;48.888;8.736;2022-12-07T13:01:31;4.30;99.90
34558;DHT22;24708;48.888;8.736;2022-12-07T13:04:01;4.30;99.90
34558;DHT22;24708;48.888;8.736;2022-12-07T13:06:35;4.20;99.90
34558;DHT22;24708;48.888;8.736;2022-12-07T13:09:20;4.20;99.90
34558;DHT22;24708;48.888;8.736;2022-12-07T13:12:00;4.30;99.90
34558;DHT22;24708;48.888;8.736;2022-12-07T13:15:02;4.80;99.90
34558;DHT22;24708;48.888;8.736;2022-12-07T13:20:42;4.60;99.90
34558;DHT22;24708;48.888;8.736;2022-12-07T13:23:13;4.60;99.90
34558;DHT22;24708;48.888;8.736;2022-12-07T13:29:16;4.70;99.90
34558;DHT22;24708;48.888;8.736;2022-12-07T13:31:34;4.60;99.90
34558;DHT22;24708;48.888;8.736;2022-12-07T13:34:04;4.50;99.90
34558;DHT22;24708;48.888;8.736;2022-12-07T13:36:39;6.10;99.90
34558;DHT22;24708;48.888;8.736;2022-12-07T13:39:18;4.20;99.90
34558;DHT22;24708;48.888;8.736;2022-12-07T13:41:50;4.40;99.90
34558;DHT22;24708;48.888;8.736;2022-12-07T13:44:19;4.40;99.90
34558;DHT22;24708;48.888;8.736;2022-12-07T13:49:48;4.20;99.90
34558;DHT22;24708;48.888;8.736;2022-12-07T13:52:29;4.10;99.90
34558;DHT22;24708;48.888;8.736;2022-12-07T13:55:14;3.90;99.90
34558;DHT22;24708;48.888;8.736;2022-12-07T13:57:42;3.80;99.90
34558;DHT22;24708;48.888;8.736;2022-12-07T14:00:21;4.10;99.90
34558;DHT22;24708;48.888;8.736;2022-12-07T14:06:06;4.00;99.90
34558;DHT22;24708;48.888;8.736;2022-12-07T14:08:34;3.80;99.90
34558;DHT22;24708;48.888;8.736;2022-12-07T14:11:02;3.90;99.90
34558;DHT22;24708;48.888;8.736;2022-12-07T14:13:35;3.90;99.90
34558;DHT22;24708;48.888;8.736;2022-12-07T14:16:15;3.90;99.90
34558;DHT22;24708;48.888;8.736;2022-12-07T14:18:45;4.20;99.90
34558;DHT22;24708;48.888;8.736;2022-12-07T14:24:15;4.00;99.90
34558;DHT22;24708;48.888;8.736;2022-12-07T14:26:45;3.90;99.90
34558;DHT22;24708;48.888;8.736;2022-12-07T14:29:27;3.80;99.90
34558;DHT22;24708;48.888;8.736;2022-12-07T14:31:58;3.80;99.90
34558;DHT22;24708;48.888;8.736;2022-12-07T14:34:26;3.80;99.90
34558;DHT22;24708;48.888;8.736;2022-12-07T14:36:53;3.80;99.90
34558;DHT22;24708;48.888;8.736;2022-12-07T14:39:20;3.70;99.90
34558;DHT22;24708;48.888;8.736;2022-12-07T14:41:48;3.70;99.90
34558;DHT22;24708;48.888;8.736;2022-12-07T14:44:20;3.50;99.90
34558;DHT22;24708;48.888;8.736;2022-12-07T14:46:53;3.40;99.90
34558;DHT22;24708;48.888;8.736;2022-12-07T14:49:40;3.50;99.90
34558;DHT22;24708;48.888;8.736;2022-12-07T14:52:16;3.40;99.90
34558;DHT22;24708;48.888;8.736;2022-12-07T14:55:05;3.00;99.90
34558;DHT22;24708;48.888;8.736;2022-12-07T14:57:32;3.30;99.90
34558;DHT22;24708;48.888;8.736;2022-12-07T15:00:06;2.90;99.90
34558;DHT22;24708;48.888;8.736;2022-12-07T15:02:33;3.20;99.90
34558;DHT22;24708;48.888;8.736;2022-12-07T15:05:00;3.20;99.90
34558;DHT22;24708;48.888;8.736;2022-12-07T15:07:28;3.20;99.90
34558;DHT22;24708;48.888;8.736;2022-12-07T15:09:55;3.20;99.90
34558;DHT22;24708;48.888;8.736;2022-12-07T15:12:23;3.20;99.90
34558;DHT22;24708;48.888;8.736;2022-12-07T15:14:51;3.10;99.90
34558;DHT22;24708;48.888;8.736;2022-12-07T15:17:19;3.20;99.90
34558;DHT22;24708;48.888;8.736;2022-12-07T15:19:57;3.10;99.90
34558;DHT22;24708;48.888;8.736;2022-12-07T15:22:25;3.20;99.90
34558;DHT22;24708;48.888;8.736;2022-12-07T15:24:52;3.20;99.90
34558;DHT22;24708;48.888;8.736;2022-12-07T15:27:19;2.20;99.90
34558;DHT22;24708;48.888;8.736;2022-12-07T15:29:47;3.20;99.90
34558;DHT22;24708;48.888;8.736;2022-12-07T15:32:14;3.20;99.90
34558;DHT22;24708;48.888;8.736;2022-12-07T15:34:41;3.20;99.90
34558;DHT22;24708;48.888;8.736;2022-12-07T15:37:08;3.20;99.90
34558;DHT22;24708;48.888;8.736;2022-12-07T15:39:37;3.20;99.90
34558;DHT22;24708;48.888;8.736;2022-12-07T15:42:04;3.10;99.90
34558;DHT22;24708;48.888;8.736;2022-12-07T15:44:31;2.40;99.90
34558;DHT22;24708;48.888;8.736;2022-12-07T15:47:18;3.00;99.90
34558;DHT22;24708;48.888;8.736;2022-12-07T15:49:46;3.00;99.90
34558;DHT22;24708;48.888;8.736;2022-12-07T15:52:13;3.00;99.90
34558;DHT22;24708;48.888;8.736;2022-12-07T15:54:40;3.00;99.90
34558;DHT22;24708;48.888;8.736;2022-12-07T15:57:08;3.00;99.90
34558;DHT22;24708;48.888;8.736;2022-12-07T15:59:35;3.00;99.90
34558;DHT22;24708;48.888;8.736;2022-12-07T16:02:02;2.90;99.90
34558;DHT22;24708;48.888;8.736;2022-12-07T16:04:29;3.00;99.90
34558;DHT22;24708;48.888;8.736;2022-12-07T16:06:57;3.00;99.90
34558;DHT22;24708;48.888;8.736;2022-12-07T16:09:24;3.00;99.90
34558;DHT22;24708;48.888;8.736;2022-12-07T16:11:52;3.00;99.90
34558;DHT22;24708;48.888;8.736;2022-12-07T16:14:19;3.00;99.90
34558;DHT22;24708;48.888;8.736;2022-12-07T16:16:47;3.00;99.90
34558;DHT22;24708;48.888;8.736;2022-12-07T16:19:14;3.00;99.90
34558;DHT22;24708;48.888;8.736;2022-12-07T16:21:41;3.00;99.90
34558;DHT22;24708;48.888;8.736;2022-12-07T16:24:09;3.10;99.90
34558;DHT22;24708;48.888;8.736;2022-12-07T16:26:37;3.10;99.90
34558;DHT22;24708;48.888;8.736;2022-12-07T16:29:04;3.10;99.90
34558;DHT22;24708;48.888;8.736;2022-12-07T16:31:31;3.00;99.90
34558;DHT22;24708;48.888;8.736;2022-12-07T16:33:59;3.00;99.90
34558;DHT22;24708;48.888;8.736;2022-12-07T16:36:26;3.00;99.90
34558;DHT22;24708;48.888;8.736;2022-12-07T16:39:14;3.20;99.90
34558;DHT22;24708;48.888;8.736;2022-12-07T16:41:41;3.00;99.90
34558;DHT22;24708;48.888;8.736;2022-12-07T16:44:11;3.00;99.90
34558;DHT22;24708;48.888;8.736;2022-12-07T16:46:39;3.00;99.90
34558;DHT22;24708;48.888;8.736;2022-12-07T16:49:10;3.00;99.90
34558;DHT22;24708;48.888;8.736;2022-12-07T16:51:38;3.00;99.90
34558;DHT22;24708;48.888;8.736;2022-12-07T16:54:06;2.90;99.90
34558;DHT22;24708;48.888;8.736;2022-12-07T16:56:33;3.00;99.90
34558;DHT22;24708;48.888;8.736;2022-12-07T16:59:00;2.90;99.90
